createdAt,value
2023-03-02T00:01:54.221Z,67.10
2023-03-02T00:04:28.907Z,67.10
2023-03-02T00:07:00.285Z,67.10
2023-03-02T00:09:28.469Z,67.40
2023-03-02T00:11:55.457Z,67.30
2023-03-02T00:14:22.504Z,67.00
2023-03-02T00:16:49.285Z,67.00
2023-03-02T00:19:16.177Z,66.70
2023-03-02T00:21:43.363Z,66.90
2023-03-02T00:24:10.273Z,67.40
2023-03-02T00:26:37.584Z,67.50
2023-03-02T00:29:04.701Z,67.50
2023-03-02T00:31:31.736Z,67.90
2023-03-02T00:33:58.594Z,68.00
2023-03-02T00:36:25.735Z,68.00
2023-03-02T00:38:53.139Z,68.40
2023-03-02T00:41:23.605Z,69.00
2023-03-02T00:43:51.277Z,69.50
2023-03-02T00:46:22.596Z,69.80
2023-03-02T00:48:50.356Z,69.80
2023-03-02T00:51:17.974Z,69.80
2023-03-02T00:53:44.919Z,69.80
2023-03-02T00:56:11.949Z,70.40
2023-03-02T00:58:39.205Z,69.70
2023-03-02T01:01:09.023Z,69.60
2023-03-02T01:03:36.607Z,69.30
2023-03-02T01:06:03.980Z,69.20
2023-03-02T01:08:31.180Z,69.60
2023-03-02T01:11:01.406Z,69.20
2023-03-02T01:13:28.842Z,69.10
2023-03-02T01:16:03.206Z,69.50
2023-03-02T01:18:30.207Z,69.50
2023-03-02T01:21:11.866Z,69.60
2023-03-02T01:23:38.612Z,69.70
2023-03-02T01:26:05.376Z,69.60
2023-03-02T01:28:32.434Z,69.50
2023-03-02T01:31:01.318Z,69.50
2023-03-02T01:33:28.033Z,69.40
2023-03-02T01:35:54.773Z,69.60
2023-03-02T01:38:21.598Z,69.70
2023-03-02T01:40:48.375Z,69.80
2023-03-02T01:43:16.474Z,70.20
2023-03-02T01:45:53.537Z,70.80
2023-03-02T01:48:37.972Z,71.10
2023-03-02T01:51:07.236Z,71.90
2023-03-02T01:53:35.610Z,71.50
2023-03-02T01:56:04.090Z,71.80
2023-03-02T01:58:35.347Z,71.80
2023-03-02T02:01:02.461Z,71.50
2023-03-02T02:03:30.681Z,71.60
2023-03-02T02:06:29.155Z,71.30
2023-03-02T02:08:58.297Z,71.00
2023-03-02T02:11:25.392Z,70.90
2023-03-02T02:13:58.595Z,71.00
2023-03-02T02:16:26.862Z,71.50
2023-03-02T02:18:53.842Z,71.50
2023-03-02T02:21:22.087Z,71.80
2023-03-02T02:24:07.393Z,72.00
2023-03-02T02:26:40.783Z,72.20
2023-03-02T02:29:14.693Z,72.70
2023-03-02T02:32:01.278Z,72.70
2023-03-02T02:34:34.361Z,72.70
2023-03-02T02:37:23.694Z,72.70
2023-03-02T02:39:51.434Z,72.50
2023-03-02T02:42:27.359Z,72.80
2023-03-02T02:44:57.702Z,72.20
2023-03-02T02:47:25.091Z,72.00
2023-03-02T02:49:56.093Z,71.80
2023-03-02T02:52:26.273Z,71.80
2023-03-02T02:54:56.259Z,71.90
2023-03-02T02:57:26.717Z,72.20
2023-03-02T02:59:58.057Z,72.10
2023-03-02T03:02:28.407Z,72.20
2023-03-02T03:05:04.054Z,72.70
2023-03-02T03:07:32.499Z,72.90
2023-03-02T03:10:14.954Z,72.70
2023-03-02T03:12:42.664Z,72.80
2023-03-02T03:15:10.173Z,72.60
2023-03-02T03:17:36.980Z,72.60
2023-03-02T03:20:09.124Z,72.60
2023-03-02T03:22:37.580Z,72.90
2023-03-02T03:25:05.396Z,73.30
2023-03-02T03:27:32.192Z,73.10
2023-03-02T03:30:01.835Z,73.50
2023-03-02T03:32:28.953Z,73.90
2023-03-02T03:34:56.448Z,74.50
2023-03-02T03:37:23.752Z,74.40
2023-03-02T03:39:50.712Z,74.60
2023-03-02T03:42:18.192Z,74.60
2023-03-02T03:44:44.934Z,74.50
2023-03-02T03:47:11.695Z,74.50
2023-03-02T03:49:38.606Z,74.20
2023-03-02T03:52:05.559Z,74.30
2023-03-02T03:54:32.418Z,74.40
2023-03-02T03:56:59.199Z,74.80
2023-03-02T03:59:27.222Z,75.10
2023-03-02T04:02:00.277Z,75.50
2023-03-02T04:04:31.342Z,75.60
2023-03-02T04:06:58.186Z,75.50
2023-03-02T04:09:26.055Z,75.20
2023-03-02T04:11:56.569Z,75.30
2023-03-02T04:14:24.892Z,74.70
2023-03-02T04:16:52.115Z,75.00
2023-03-02T04:19:19.299Z,74.90
2023-03-02T04:21:49.325Z,74.90
2023-03-02T04:24:17.099Z,75.00
2023-03-02T04:26:45.234Z,74.70
2023-03-02T04:29:13.285Z,74.60
2023-03-02T04:31:40.659Z,74.40
2023-03-02T04:34:08.183Z,74.40
2023-03-02T04:36:37.442Z,74.50
2023-03-02T04:39:06.165Z,75.30
2023-03-02T04:41:33.343Z,75.10
2023-03-02T04:44:00.121Z,75.00
2023-03-02T04:46:28.197Z,75.20
2023-03-02T04:48:55.430Z,75.50
2023-03-02T04:51:27.982Z,75.40
2023-03-02T04:53:56.628Z,75.00
2023-03-02T04:56:23.553Z,75.30
2023-03-02T04:58:50.267Z,75.70
2023-03-02T05:01:18.639Z,76.00
2023-03-02T05:03:46.163Z,76.40
2023-03-02T05:06:13.249Z,76.40
2023-03-02T05:08:40.200Z,75.70
2023-03-02T05:11:10.358Z,75.60
2023-03-02T05:13:37.073Z,75.50
2023-03-02T05:16:04.019Z,76.00
2023-03-02T05:18:31.731Z,75.10
2023-03-02T05:20:58.424Z,74.90
2023-03-02T05:23:26.903Z,74.50
2023-03-02T05:25:55.615Z,74.70
2023-03-02T05:28:24.258Z,74.40
2023-03-02T05:30:51.915Z,74.50
2023-03-02T05:33:19.232Z,74.90
2023-03-02T05:35:46.708Z,74.70
2023-03-02T05:38:14.293Z,74.90
2023-03-02T05:40:42.621Z,75.20
2023-03-02T05:43:10.656Z,75.00
2023-03-02T05:45:38.833Z,74.90
2023-03-02T05:48:06.539Z,74.80
2023-03-02T05:50:33.569Z,74.60
2023-03-02T05:53:02.455Z,75.00
2023-03-02T05:55:30.046Z,75.70
2023-03-02T05:57:56.940Z,76.70
2023-03-02T06:00:24.132Z,77.20
2023-03-02T06:02:50.986Z,78.40
2023-03-02T06:05:19.894Z,78.90
2023-03-02T06:07:46.759Z,79.10
2023-03-02T06:10:14.421Z,78.40
2023-03-02T06:12:41.380Z,78.50
2023-03-02T06:15:09.478Z,78.50
2023-03-02T06:17:37.360Z,78.50
2023-03-02T06:20:11.305Z,78.10
2023-03-02T06:22:46.558Z,78.50
2023-03-02T06:25:17.476Z,79.20
2023-03-02T06:27:44.670Z,79.50
2023-03-02T06:30:14.645Z,79.30
2023-03-02T06:32:41.841Z,79.30
2023-03-02T06:35:10.308Z,78.50
2023-03-02T06:37:37.281Z,77.60
2023-03-02T06:40:11.485Z,76.70
2023-03-02T06:42:39.540Z,76.30
2023-03-02T06:45:07.610Z,75.70
2023-03-02T06:47:34.424Z,75.30
2023-03-02T06:50:01.375Z,74.80
2023-03-02T06:52:28.342Z,74.80
2023-03-02T06:54:55.635Z,74.10
2023-03-02T06:57:22.588Z,74.00
2023-03-02T06:59:49.316Z,74.30
2023-03-02T07:02:16.088Z,74.60
2023-03-02T07:04:42.817Z,74.40
2023-03-02T07:07:09.594Z,75.10
2023-03-02T07:09:36.364Z,75.60
2023-03-02T07:12:03.141Z,75.40
2023-03-02T07:14:29.929Z,75.40
2023-03-02T07:16:57.589Z,74.40
2023-03-02T07:19:24.717Z,73.80
2023-03-02T07:21:51.496Z,72.70
2023-03-02T07:24:18.229Z,72.80
2023-03-02T07:26:45.126Z,72.20
2023-03-02T07:29:11.866Z,71.80
2023-03-02T07:31:38.598Z,69.70
2023-03-02T07:34:05.403Z,68.90
2023-03-02T07:36:32.152Z,66.80
2023-03-02T07:38:58.931Z,65.50
2023-03-02T07:41:25.661Z,63.60
2023-03-02T07:43:52.343Z,61.90
2023-03-02T07:46:19.161Z,61.00
2023-03-02T07:48:45.874Z,59.60
2023-03-02T07:51:12.776Z,58.90
2023-03-02T07:53:39.554Z,56.80
2023-03-02T07:56:11.328Z,55.80
2023-03-02T07:58:38.474Z,55.20
2023-03-02T08:01:05.407Z,54.70
2023-03-02T08:03:32.223Z,53.30
2023-03-02T08:05:58.980Z,52.30
2023-03-02T08:08:25.647Z,52.80
2023-03-02T08:10:52.401Z,52.70
2023-03-02T08:13:19.133Z,51.80
2023-03-02T08:15:45.935Z,51.20
2023-03-02T08:18:12.722Z,50.10
2023-03-02T08:20:39.499Z,50.60
2023-03-02T08:23:06.280Z,50.50
2023-03-02T08:25:33.184Z,49.40
2023-03-02T08:27:59.926Z,48.20
2023-03-02T08:30:26.957Z,47.00
2023-03-02T08:32:53.778Z,48.50
2023-03-02T08:35:22.222Z,50.30
2023-03-02T08:37:49.246Z,48.40
2023-03-02T08:40:16.132Z,48.50
2023-03-02T08:42:42.847Z,49.10
2023-03-02T08:45:10.909Z,48.50
2023-03-02T08:47:37.660Z,49.00
2023-03-02T08:50:05.626Z,50.80
2023-03-02T08:52:35.411Z,50.40
2023-03-02T08:55:03.882Z,49.50
2023-03-02T08:57:31.071Z,49.70
2023-03-02T08:59:57.764Z,48.40
2023-03-02T09:02:24.530Z,47.70
2023-03-02T09:04:51.302Z,47.40
2023-03-02T09:07:18.154Z,47.80
2023-03-02T09:09:44.848Z,46.90
2023-03-02T09:12:12.038Z,45.60
2023-03-02T09:14:39.098Z,47.30
2023-03-02T09:17:06.492Z,47.50
2023-03-02T09:19:43.825Z,47.70
2023-03-02T09:22:11.337Z,47.90
2023-03-02T09:24:38.018Z,48.20
2023-03-02T09:27:04.945Z,48.90
2023-03-02T09:29:31.709Z,47.90
2023-03-02T09:31:58.613Z,47.60
2023-03-02T09:34:25.509Z,47.60
2023-03-02T09:36:52.248Z,47.80
2023-03-02T09:39:19.531Z,47.00
2023-03-02T09:42:04.869Z,47.70
2023-03-02T09:44:51.115Z,48.30
2023-03-02T09:47:35.533Z,48.50
2023-03-02T09:50:34.329Z,49.10
2023-03-02T09:53:32.606Z,48.30
2023-03-02T09:56:02.612Z,48.40
2023-03-02T09:58:35.948Z,48.10
2023-03-02T10:01:09.388Z,47.10
2023-03-02T10:03:48.112Z,47.20
2023-03-02T10:06:14.990Z,47.00
2023-03-02T10:08:43.385Z,47.00
2023-03-02T10:11:54.971Z,47.50
2023-03-02T10:14:27.711Z,47.70
2023-03-02T10:17:05.731Z,47.60
2023-03-02T10:19:42.240Z,46.60
2023-03-02T10:22:08.890Z,46.20
2023-03-02T10:25:00.117Z,46.50
2023-03-02T10:27:41.184Z,45.50
2023-03-02T10:30:19.601Z,45.50
2023-03-02T10:32:49.919Z,45.60
2023-03-02T10:35:23.214Z,45.10
2023-03-02T10:37:55.195Z,45.60
2023-03-02T10:40:42.116Z,45.70
2023-03-02T10:43:15.982Z,45.10
2023-03-02T10:45:42.936Z,45.00
2023-03-02T10:48:13.462Z,45.60
2023-03-02T10:50:42.599Z,45.00
2023-03-02T10:53:17.729Z,43.60
2023-03-02T10:55:47.190Z,43.10
2023-03-02T10:58:25.870Z,43.40
2023-03-02T11:00:58.702Z,43.60
2023-03-02T11:03:25.760Z,44.30
2023-03-02T11:05:52.638Z,44.60
2023-03-02T11:08:20.572Z,44.20
2023-03-02T11:11:03.322Z,44.00
2023-03-02T11:13:37.595Z,43.40
2023-03-02T11:16:28.592Z,44.10
2023-03-02T11:19:02.537Z,44.30
2023-03-02T11:21:33.230Z,44.60
2023-03-02T11:24:28.537Z,44.20
2023-03-02T11:27:00.847Z,44.60
2023-03-02T11:29:47.227Z,44.30
2023-03-02T11:32:27.393Z,44.50
2023-03-02T11:34:59.854Z,44.60
2023-03-02T11:37:36.598Z,45.10
2023-03-02T11:40:26.088Z,45.00
2023-03-02T11:42:55.940Z,45.60
2023-03-02T11:45:36.485Z,45.40
2023-03-02T11:48:23.642Z,44.70
2023-03-02T11:51:05.685Z,43.60
2023-03-02T11:53:57.502Z,43.50
2023-03-02T11:56:25.622Z,44.20
2023-03-02T11:58:57.562Z,44.30
2023-03-02T12:01:26.854Z,44.20
2023-03-02T12:03:54.588Z,44.60
2023-03-02T12:06:21.337Z,44.90
2023-03-02T12:08:50.293Z,44.80
2023-03-02T12:11:17.082Z,44.30
2023-03-02T12:13:46.727Z,44.10
2023-03-02T12:16:22.125Z,44.40
2023-03-02T12:18:50.691Z,44.10
2023-03-02T12:21:23.200Z,43.90
2023-03-02T12:23:49.962Z,44.10
2023-03-02T12:26:19.984Z,43.70
2023-03-02T12:28:59.014Z,43.90
2023-03-02T12:31:26.119Z,44.00
2023-03-02T12:33:53.255Z,43.80
2023-03-02T12:36:32.790Z,43.90
2023-03-02T12:39:45.033Z,43.80
2023-03-02T12:42:28.203Z,43.70
2023-03-02T12:45:11.009Z,44.10
2023-03-02T12:47:40.702Z,44.00
2023-03-02T12:50:22.173Z,43.70
2023-03-02T12:53:19.881Z,43.50
2023-03-02T12:55:47.131Z,43.30
2023-03-02T12:58:26.009Z,43.50
2023-03-02T13:00:55.593Z,43.40
2023-03-02T13:03:23.214Z,43.00
2023-03-02T13:05:50.066Z,42.70
2023-03-02T13:08:24.137Z,42.60
2023-03-02T13:10:56.834Z,42.00
2023-03-02T13:13:27.796Z,41.50
2023-03-02T13:16:00.411Z,41.40
2023-03-02T13:18:33.213Z,41.00
2023-03-02T13:21:01.590Z,40.10
2023-03-02T13:23:30.899Z,40.80
2023-03-02T13:25:59.824Z,42.30
2023-03-02T13:28:40.470Z,42.40
2023-03-02T13:31:23.372Z,43.10
2023-03-02T13:33:52.830Z,43.20
2023-03-02T13:36:21.918Z,43.20
2023-03-02T13:38:54.361Z,42.90
2023-03-02T13:41:26.564Z,42.70
2023-03-02T13:43:53.382Z,42.30
2023-03-02T13:46:20.458Z,42.50
2023-03-02T13:49:11.533Z,42.60
2023-03-02T13:51:44.914Z,42.80
2023-03-02T13:54:26.244Z,42.80
2023-03-02T13:56:53.845Z,43.10
2023-03-02T13:59:22.022Z,43.60
2023-03-02T14:01:49.405Z,43.30
2023-03-02T14:04:19.186Z,44.20
2023-03-02T14:06:46.111Z,44.80
2023-03-02T14:09:13.426Z,45.00
2023-03-02T14:11:46.796Z,44.60
2023-03-02T14:14:20.845Z,44.40
2023-03-02T14:16:47.632Z,44.00
2023-03-02T14:19:18.301Z,44.00
2023-03-02T14:21:46.309Z,43.60
2023-03-02T14:24:14.502Z,43.40
2023-03-02T14:26:50.256Z,44.00
2023-03-02T14:29:21.599Z,43.70
2023-03-02T14:31:48.425Z,44.10
2023-03-02T14:34:17.036Z,44.40
2023-03-02T14:36:46.413Z,46.10
2023-03-02T14:39:35.611Z,46.80
2023-03-02T14:42:03.957Z,47.00
2023-03-02T14:44:30.790Z,47.00
2023-03-02T14:46:58.260Z,47.00
2023-03-02T14:49:25.396Z,47.10
2023-03-02T14:52:26.424Z,47.20
2023-03-02T14:54:56.234Z,47.40
2023-03-02T14:57:25.472Z,47.70
2023-03-02T14:59:53.451Z,47.90
2023-03-02T15:02:25.973Z,48.30
2023-03-02T15:04:56.545Z,48.30
2023-03-02T15:07:25.138Z,48.80
2023-03-02T15:09:51.978Z,48.90
2023-03-02T15:12:18.744Z,48.60
2023-03-02T15:14:45.530Z,48.70
2023-03-02T15:17:12.373Z,48.30
2023-03-02T15:19:39.134Z,48.50
2023-03-02T15:22:05.945Z,48.40
2023-03-02T15:24:33.537Z,47.40
2023-03-02T15:27:00.811Z,47.40
2023-03-02T15:29:27.655Z,47.50
2023-03-02T15:31:54.558Z,47.70
2023-03-02T15:34:21.525Z,48.00
2023-03-02T15:36:48.365Z,48.10
2023-03-02T15:39:16.697Z,48.00
2023-03-02T15:41:43.512Z,47.90
2023-03-02T15:44:22.751Z,48.30
2023-03-02T15:46:51.742Z,48.80
2023-03-02T15:49:22.774Z,48.90
2023-03-02T15:51:51.964Z,49.20
2023-03-02T15:54:19.159Z,49.00
2023-03-02T15:56:49.555Z,49.40
2023-03-02T15:59:16.481Z,50.90
2023-03-02T16:01:43.286Z,49.50
2023-03-02T16:04:10.456Z,48.80
2023-03-02T16:06:37.478Z,48.70
2023-03-02T16:09:04.317Z,49.00
2023-03-02T16:11:31.191Z,49.10
2023-03-02T16:13:57.967Z,49.00
2023-03-02T16:16:24.954Z,49.20
2023-03-02T16:18:58.540Z,48.80
2023-03-02T16:21:27.164Z,48.30
2023-03-02T16:23:54.712Z,48.10
2023-03-02T16:26:21.974Z,48.00
2023-03-02T16:28:49.447Z,47.70
2023-03-02T16:31:20.730Z,47.70
2023-03-02T16:33:50.061Z,47.80
2023-03-02T16:36:17.125Z,48.00
2023-03-02T16:38:43.926Z,48.20
2023-03-02T16:41:16.402Z,48.10
2023-03-02T16:43:49.095Z,48.10
2023-03-02T16:46:16.664Z,48.30
2023-03-02T16:48:44.815Z,48.60
2023-03-02T16:51:11.849Z,48.90
2023-03-02T16:53:40.772Z,49.30
2023-03-02T16:56:08.648Z,49.50
2023-03-02T16:58:38.285Z,49.50
2023-03-02T17:01:07.043Z,49.50
2023-03-02T17:03:34.485Z,49.80
2023-03-02T17:06:01.497Z,50.00
2023-03-02T17:08:28.492Z,50.30
2023-03-02T17:10:55.229Z,50.60
2023-03-02T17:13:22.039Z,50.80
2023-03-02T17:15:48.879Z,51.00
2023-03-02T17:18:15.703Z,51.30
2023-03-02T17:20:42.607Z,51.80
2023-03-02T17:23:11.891Z,52.20
2023-03-02T17:25:39.064Z,52.10
2023-03-02T17:28:05.952Z,52.50
2023-03-02T17:30:32.715Z,52.40
2023-03-02T17:32:59.524Z,52.80
2023-03-02T17:35:26.446Z,53.20
2023-03-02T17:37:53.278Z,53.40
2023-03-02T17:40:20.220Z,54.10
2023-03-02T17:42:47.006Z,54.30
2023-03-02T17:45:19.252Z,54.20
2023-03-02T17:47:46.123Z,54.50
2023-03-02T17:50:13.736Z,54.50
2023-03-02T17:52:41.080Z,54.50
2023-03-02T17:55:08.511Z,54.70
2023-03-02T17:57:35.915Z,54.70
2023-03-02T18:00:07.283Z,54.80
2023-03-02T18:02:34.744Z,55.30
2023-03-02T18:05:01.854Z,55.80
2023-03-02T18:07:28.830Z,55.90
2023-03-02T18:09:55.788Z,56.20
2023-03-02T18:12:22.613Z,56.50
2023-03-02T18:14:49.381Z,56.70
2023-03-02T18:17:16.162Z,56.70
2023-03-02T18:19:42.928Z,56.80
2023-03-02T18:22:10.553Z,56.80
2023-03-02T18:24:37.332Z,56.80
2023-03-02T18:27:04.796Z,57.20
2023-03-02T18:29:32.647Z,57.70
2023-03-02T18:31:59.951Z,57.80
2023-03-02T18:34:26.748Z,58.10
2023-03-02T18:36:53.478Z,58.50
2023-03-02T18:39:20.268Z,58.70
2023-03-02T18:41:47.104Z,58.70
2023-03-02T18:44:13.852Z,58.80
2023-03-02T18:46:40.878Z,59.10
2023-03-02T18:49:07.852Z,59.50
2023-03-02T18:51:34.655Z,59.40
2023-03-02T18:54:02.592Z,59.30
2023-03-02T18:56:29.506Z,59.70
2023-03-02T18:58:56.479Z,59.80
2023-03-02T19:01:23.359Z,59.80
2023-03-02T19:03:50.301Z,60.50
2023-03-02T19:06:17.413Z,60.40
2023-03-02T19:08:44.512Z,60.70
2023-03-02T19:11:11.980Z,60.80
2023-03-02T19:13:38.732Z,60.80
2023-03-02T19:16:06.413Z,61.00
2023-03-02T19:18:34.329Z,61.30
2023-03-02T19:21:01.454Z,61.00
2023-03-02T19:23:28.576Z,60.60
2023-03-02T19:25:55.371Z,60.90
2023-03-02T19:28:22.122Z,60.80
2023-03-02T19:30:50.234Z,60.90
2023-03-02T19:33:17.944Z,61.10
2023-03-02T19:35:45.338Z,61.30
2023-03-02T19:38:12.811Z,61.40
2023-03-02T19:40:39.661Z,61.30
2023-03-02T19:43:06.707Z,61.30
2023-03-02T19:45:35.686Z,61.40
2023-03-02T19:48:03.637Z,61.70
2023-03-02T19:50:30.489Z,61.60
2023-03-02T19:52:58.418Z,61.30
2023-03-02T19:55:25.747Z,61.60
2023-03-02T19:57:59.553Z,61.50
2023-03-02T20:00:28.502Z,61.70
2023-03-02T20:02:55.891Z,61.90
2023-03-02T20:05:22.784Z,62.60
2023-03-02T20:07:49.613Z,63.30
2023-03-02T20:10:31.676Z,63.50
2023-03-02T20:12:59.845Z,63.70
2023-03-02T20:15:31.876Z,63.60
2023-03-02T20:18:01.613Z,64.40
2023-03-02T20:20:29.512Z,64.40
2023-03-02T20:22:56.667Z,64.80
2023-03-02T20:25:23.573Z,64.50
2023-03-02T20:27:51.848Z,64.60
2023-03-02T20:30:32.239Z,64.60
2023-03-02T20:33:00.928Z,64.50
2023-03-02T20:35:30.796Z,64.10
2023-03-02T20:37:59.128Z,63.60
2023-03-02T20:40:26.512Z,63.30
2023-03-02T20:42:53.552Z,63.70
2023-03-02T20:45:21.146Z,63.90
2023-03-02T20:47:48.221Z,64.40
2023-03-02T20:50:18.907Z,64.90
2023-03-02T20:52:47.321Z,65.10
2023-03-02T20:55:14.697Z,65.00
2023-03-02T20:57:41.988Z,66.20
2023-03-02T21:00:14.945Z,65.40
2023-03-02T21:02:42.531Z,65.20
2023-03-02T21:05:09.820Z,64.90
2023-03-02T21:07:36.869Z,64.90
2023-03-02T21:10:07.929Z,64.90
2023-03-02T21:12:36.175Z,64.90
2023-03-02T21:15:04.110Z,64.80
2023-03-02T21:17:31.572Z,64.90
2023-03-02T21:19:58.487Z,64.70
2023-03-02T21:22:25.489Z,64.90
2023-03-02T21:24:53.141Z,64.80
2023-03-02T21:27:20.260Z,64.70
2023-03-02T21:29:47.697Z,65.30
2023-03-02T21:32:15.156Z,65.00
2023-03-02T21:34:42.293Z,65.10
2023-03-02T21:37:09.097Z,65.60
2023-03-02T21:39:35.925Z,65.60
2023-03-02T21:42:03.107Z,65.50
2023-03-02T21:44:30.473Z,65.20
2023-03-02T21:46:57.560Z,64.80
2023-03-02T21:49:24.351Z,64.90
2023-03-02T21:51:51.255Z,64.80
2023-03-02T21:54:18.371Z,64.70
2023-03-02T21:56:45.254Z,64.70
2023-03-02T21:59:13.007Z,64.80
2023-03-02T22:01:40.163Z,65.00
2023-03-02T22:04:07.070Z,65.40
2023-03-02T22:06:35.017Z,65.30
2023-03-02T22:09:02.494Z,65.20
2023-03-02T22:11:33.012Z,65.10
2023-03-02T22:14:03.400Z,65.50
2023-03-02T22:16:39.252Z,65.10
2023-03-02T22:19:27.678Z,64.70
2023-03-02T22:21:56.318Z,64.20
2023-03-02T22:24:26.571Z,64.10
2023-03-02T22:27:02.235Z,64.00
2023-03-02T22:29:49.710Z,64.40
2023-03-02T22:32:25.723Z,64.60
2023-03-02T22:34:58.139Z,65.00
2023-03-02T22:37:32.790Z,64.60
2023-03-02T22:40:07.981Z,64.80
2023-03-02T22:42:34.721Z,65.70
2023-03-02T22:45:12.852Z,64.90
2023-03-02T22:47:39.656Z,65.30
2023-03-02T22:50:21.241Z,65.70
2023-03-02T22:52:48.463Z,65.30
2023-03-02T22:55:38.408Z,65.30
2023-03-02T22:58:26.949Z,64.50
2023-03-02T23:00:53.769Z,64.90
2023-03-02T23:03:23.822Z,65.00
2023-03-02T23:05:52.908Z,65.30
2023-03-02T23:08:28.806Z,65.50
2023-03-02T23:10:58.805Z,65.40
2023-03-02T23:13:39.617Z,65.40
2023-03-02T23:16:18.326Z,65.60
2023-03-02T23:18:47.829Z,65.70
2023-03-02T23:21:28.248Z,65.50
2023-03-02T23:23:55.466Z,66.90
2023-03-02T23:26:22.166Z,67.00
2023-03-02T23:28:50.719Z,66.90
2023-03-02T23:31:21.274Z,67.50
2023-03-02T23:33:48.556Z,68.10
2023-03-02T23:36:15.721Z,68.20
2023-03-02T23:38:42.579Z,68.40
2023-03-02T23:41:09.872Z,68.80
2023-03-02T23:43:36.720Z,69.60
2023-03-02T23:46:03.795Z,69.80
2023-03-02T23:48:30.784Z,69.30
2023-03-02T23:50:57.568Z,69.80
2023-03-02T23:53:24.452Z,70.50
2023-03-02T23:55:53.453Z,70.20
2023-03-02T23:58:20.736Z,70.50
